sensor_id;sensor_type;location;lat;lon;timestamp;P1;durP1;ratioP1;P2;durP2;ratioP2
12171;SDS011;6149;52.418;13.668;2023-05-15T00:01:54;15.93;;;14.10;;
12171;SDS011;6149;52.418;13.668;2023-05-15T00:04:24;16.13;;;14.63;;
12171;SDS011;6149;52.418;13.668;2023-05-15T00:06:50;18.70;;;14.20;;
12171;SDS011;6149;52.418;13.668;2023-05-15T00:09:17;16.77;;;15.17;;
12171;SDS011;6149;52.418;13.668;2023-05-15T00:11:45;15.30;;;13.73;;
12171;SDS011;6149;52.418;13.668;2023-05-15T00:14:11;15.93;;;14.30;;
12171;SDS011;6149;52.418;13.668;2023-05-15T00:16:38;15.37;;;13.97;;
12171;SDS011;6149;52.418;13.668;2023-05-15T00:19:04;15.53;;;13.93;;
12171;SDS011;6149;52.418;13.668;2023-05-15T00:21:32;16.90;;;15.30;;
12171;SDS011;6149;52.418;13.668;2023-05-15T00:24:01;16.27;;;14.57;;
12171;SDS011;6149;52.418;13.668;2023-05-15T00:26:28;13.93;;;12.53;;
12171;SDS011;6149;52.418;13.668;2023-05-15T00:28:55;14.93;;;13.53;;
12171;SDS011;6149;52.418;13.668;2023-05-15T00:31:23;15.93;;;14.30;;
12171;SDS011;6149;52.418;13.668;2023-05-15T00:33:51;15.00;;;13.50;;
12171;SDS011;6149;52.418;13.668;2023-05-15T00:36:17;16.13;;;14.53;;
12171;SDS011;6149;52.418;13.668;2023-05-15T00:38:55;16.13;;;14.53;;
12171;SDS011;6149;52.418;13.668;2023-05-15T00:41:23;15.60;;;14.00;;
12171;SDS011;6149;52.418;13.668;2023-05-15T00:43:52;15.63;;;14.07;;
12171;SDS011;6149;52.418;13.668;2023-05-15T00:46:21;15.97;;;14.27;;
12171;SDS011;6149;52.418;13.668;2023-05-15T00:48:52;14.37;;;12.97;;
12171;SDS011;6149;52.418;13.668;2023-05-15T00:51:22;15.70;;;14.00;;
12171;SDS011;6149;52.418;13.668;2023-05-15T00:53:54;15.17;;;13.67;;
12171;SDS011;6149;52.418;13.668;2023-05-15T00:56:22;14.60;;;13.20;;
12171;SDS011;6149;52.418;13.668;2023-05-15T00:58:51;15.13;;;13.03;;
12171;SDS011;6149;52.418;13.668;2023-05-15T01:01:21;15.00;;;13.53;;
12171;SDS011;6149;52.418;13.668;2023-05-15T01:03:50;14.83;;;13.47;;
12171;SDS011;6149;52.418;13.668;2023-05-15T01:06:17;15.67;;;14.07;;
12171;SDS011;6149;52.418;13.668;2023-05-15T01:08:48;15.57;;;13.97;;
12171;SDS011;6149;52.418;13.668;2023-05-15T01:11:17;14.80;;;13.37;;
12171;SDS011;6149;52.418;13.668;2023-05-15T01:13:49;15.50;;;14.00;;
12171;SDS011;6149;52.418;13.668;2023-05-15T01:16:17;16.53;;;13.63;;
12171;SDS011;6149;52.418;13.668;2023-05-15T01:18:48;14.00;;;12.80;;
12171;SDS011;6149;52.418;13.668;2023-05-15T01:21:23;15.80;;;14.30;;
12171;SDS011;6149;52.418;13.668;2023-05-15T01:24:17;15.77;;;14.03;;
12171;SDS011;6149;52.418;13.668;2023-05-15T01:27:09;14.80;;;13.30;;
12171;SDS011;6149;52.418;13.668;2023-05-15T01:29:48;14.33;;;12.90;;
12171;SDS011;6149;52.418;13.668;2023-05-15T01:32:23;14.70;;;13.30;;
12171;SDS011;6149;52.418;13.668;2023-05-15T01:34:56;15.80;;;14.20;;
12171;SDS011;6149;52.418;13.668;2023-05-15T01:37:36;14.83;;;13.33;;
12171;SDS011;6149;52.418;13.668;2023-05-15T01:40:09;15.70;;;14.10;;
12171;SDS011;6149;52.418;13.668;2023-05-15T01:42:43;16.70;;;15.00;;
12171;SDS011;6149;52.418;13.668;2023-05-15T01:45:18;14.97;;;13.60;;
12171;SDS011;6149;52.418;13.668;2023-05-15T01:47:51;14.93;;;13.57;;
12171;SDS011;6149;52.418;13.668;2023-05-15T01:50:21;15.43;;;13.93;;
12171;SDS011;6149;52.418;13.668;2023-05-15T01:52:49;15.57;;;13.97;;
12171;SDS011;6149;52.418;13.668;2023-05-15T01:55:24;16.10;;;14.57;;
12171;SDS011;6149;52.418;13.668;2023-05-15T01:57:54;14.77;;;13.30;;
12171;SDS011;6149;52.418;13.668;2023-05-15T02:00:23;14.67;;;13.17;;
12171;SDS011;6149;52.418;13.668;2023-05-15T02:02:52;14.03;;;12.73;;
12171;SDS011;6149;52.418;13.668;2023-05-15T02:05:20;15.70;;;14.17;;
12171;SDS011;6149;52.418;13.668;2023-05-15T02:07:49;14.73;;;13.23;;
12171;SDS011;6149;52.418;13.668;2023-05-15T02:10:17;16.73;;;14.70;;
12171;SDS011;6149;52.418;13.668;2023-05-15T02:12:46;16.13;;;14.47;;
12171;SDS011;6149;52.418;13.668;2023-05-15T02:15:16;15.50;;;14.00;;
12171;SDS011;6149;52.418;13.668;2023-05-15T02:17:47;16.63;;;15.03;;
12171;SDS011;6149;52.418;13.668;2023-05-15T02:20:13;15.50;;;14.00;;
12171;SDS011;6149;52.418;13.668;2023-05-15T02:22:41;15.47;;;13.87;;
12171;SDS011;6149;52.418;13.668;2023-05-15T02:25:08;18.07;;;15.30;;
12171;SDS011;6149;52.418;13.668;2023-05-15T02:27:40;16.77;;;15.07;;
12171;SDS011;6149;52.418;13.668;2023-05-15T02:30:28;17.23;;;15.17;;
12171;SDS011;6149;52.418;13.668;2023-05-15T02:33:08;15.60;;;14.17;;
12171;SDS011;6149;52.418;13.668;2023-05-15T02:35:50;16.17;;;14.63;;
12171;SDS011;6149;52.418;13.668;2023-05-15T02:38:23;16.77;;;15.10;;
12171;SDS011;6149;52.418;13.668;2023-05-15T02:40:58;17.37;;;15.53;;
12171;SDS011;6149;52.418;13.668;2023-05-15T02:43:26;15.83;;;14.23;;
12171;SDS011;6149;52.418;13.668;2023-05-15T02:45:55;16.67;;;15.07;;
12171;SDS011;6149;52.418;13.668;2023-05-15T02:48:22;16.47;;;14.87;;
12171;SDS011;6149;52.418;13.668;2023-05-15T02:50:50;16.77;;;15.17;;
12171;SDS011;6149;52.418;13.668;2023-05-15T02:53:17;17.20;;;15.57;;
12171;SDS011;6149;52.418;13.668;2023-05-15T02:55:47;17.23;;;15.53;;
12171;SDS011;6149;52.418;13.668;2023-05-15T02:58:16;16.27;;;14.77;;
12171;SDS011;6149;52.418;13.668;2023-05-15T03:00:45;17.23;;;15.07;;
12171;SDS011;6149;52.418;13.668;2023-05-15T03:03:13;17.27;;;15.63;;
12171;SDS011;6149;52.418;13.668;2023-05-15T03:05:42;16.17;;;14.57;;
12171;SDS011;6149;52.418;13.668;2023-05-15T03:08:09;16.43;;;14.83;;
12171;SDS011;6149;52.418;13.668;2023-05-15T03:10:36;16.17;;;14.63;;
12171;SDS011;6149;52.418;13.668;2023-05-15T03:13:02;16.00;;;14.40;;
12171;SDS011;6149;52.418;13.668;2023-05-15T03:15:29;16.20;;;14.50;;
12171;SDS011;6149;52.418;13.668;2023-05-15T03:17:55;15.40;;;13.87;;
12171;SDS011;6149;52.418;13.668;2023-05-15T03:20:25;15.00;;;13.57;;
12171;SDS011;6149;52.418;13.668;2023-05-15T03:22:53;15.40;;;13.73;;
12171;SDS011;6149;52.418;13.668;2023-05-15T03:25:21;16.63;;;14.47;;
12171;SDS011;6149;52.418;13.668;2023-05-15T03:27:48;16.03;;;14.33;;
12171;SDS011;6149;52.418;13.668;2023-05-15T03:30:17;16.57;;;14.87;;
12171;SDS011;6149;52.418;13.668;2023-05-15T03:32:45;16.60;;;14.97;;
12171;SDS011;6149;52.418;13.668;2023-05-15T03:35:14;16.10;;;14.57;;
12171;SDS011;6149;52.418;13.668;2023-05-15T03:37:42;17.40;;;15.53;;
12171;SDS011;6149;52.418;13.668;2023-05-15T03:40:08;15.60;;;14.17;;
12171;SDS011;6149;52.418;13.668;2023-05-15T03:42:38;17.23;;;15.53;;
12171;SDS011;6149;52.418;13.668;2023-05-15T03:45:05;16.30;;;14.60;;
12171;SDS011;6149;52.418;13.668;2023-05-15T03:47:33;15.57;;;14.13;;
12171;SDS011;6149;52.418;13.668;2023-05-15T03:50:01;17.20;;;15.50;;
12171;SDS011;6149;52.418;13.668;2023-05-15T03:52:28;17.73;;;15.97;;
12171;SDS011;6149;52.418;13.668;2023-05-15T03:54:56;16.77;;;15.17;;
12171;SDS011;6149;52.418;13.668;2023-05-15T03:57:24;16.63;;;15.03;;
12171;SDS011;6149;52.418;13.668;2023-05-15T03:59:52;18.20;;;16.40;;
12171;SDS011;6149;52.418;13.668;2023-05-15T04:02:20;16.93;;;15.23;;
12171;SDS011;6149;52.418;13.668;2023-05-15T04:04:47;17.97;;;16.17;;
12171;SDS011;6149;52.418;13.668;2023-05-15T04:07:13;20.63;;;17.20;;
12171;SDS011;6149;52.418;13.668;2023-05-15T04:09:41;19.43;;;17.13;;
12171;SDS011;6149;52.418;13.668;2023-05-15T04:12:09;19.57;;;17.60;;
12171;SDS011;6149;52.418;13.668;2023-05-15T04:14:36;19.40;;;17.40;;
12171;SDS011;6149;52.418;13.668;2023-05-15T04:17:02;19.17;;;17.17;;
12171;SDS011;6149;52.418;13.668;2023-05-15T04:19:29;20.17;;;18.07;;
12171;SDS011;6149;52.418;13.668;2023-05-15T04:21:56;17.50;;;15.87;;
12171;SDS011;6149;52.418;13.668;2023-05-15T04:24:24;18.70;;;16.80;;
12171;SDS011;6149;52.418;13.668;2023-05-15T04:26:52;18.13;;;16.43;;
12171;SDS011;6149;52.418;13.668;2023-05-15T04:29:24;19.30;;;16.83;;
12171;SDS011;6149;52.418;13.668;2023-05-15T04:31:52;16.93;;;15.37;;
12171;SDS011;6149;52.418;13.668;2023-05-15T04:34:21;15.90;;;14.23;;
12171;SDS011;6149;52.418;13.668;2023-05-15T04:36:49;16.77;;;15.13;;
12171;SDS011;6149;52.418;13.668;2023-05-15T04:39:17;18.93;;;16.23;;
12171;SDS011;6149;52.418;13.668;2023-05-15T04:41:44;20.23;;;15.87;;
12171;SDS011;6149;52.418;13.668;2023-05-15T04:44:14;18.73;;;17.03;;
12171;SDS011;6149;52.418;13.668;2023-05-15T04:46:42;16.40;;;14.87;;
12171;SDS011;6149;52.418;13.668;2023-05-15T04:49:10;17.07;;;15.37;;
12171;SDS011;6149;52.418;13.668;2023-05-15T04:51:37;17.80;;;15.90;;
12171;SDS011;6149;52.418;13.668;2023-05-15T04:54:05;19.77;;;17.77;;
12171;SDS011;6149;52.418;13.668;2023-05-15T04:56:33;18.20;;;16.50;;
12171;SDS011;6149;52.418;13.668;2023-05-15T04:59:02;18.63;;;16.83;;
12171;SDS011;6149;52.418;13.668;2023-05-15T05:01:28;20.00;;;17.73;;
12171;SDS011;6149;52.418;13.668;2023-05-15T05:03:56;21.47;;;19.27;;
12171;SDS011;6149;52.418;13.668;2023-05-15T05:06:24;20.13;;;18.07;;
12171;SDS011;6149;52.418;13.668;2023-05-15T05:08:50;17.27;;;15.67;;
12171;SDS011;6149;52.418;13.668;2023-05-15T05:11:17;16.90;;;15.30;;
12171;SDS011;6149;52.418;13.668;2023-05-15T05:13:46;18.33;;;16.40;;
12171;SDS011;6149;52.418;13.668;2023-05-15T05:16:21;16.63;;;15.03;;
12171;SDS011;6149;52.418;13.668;2023-05-15T05:18:48;17.07;;;15.37;;
12171;SDS011;6149;52.418;13.668;2023-05-15T05:21:21;18.00;;;16.13;;
12171;SDS011;6149;52.418;13.668;2023-05-15T05:23:49;16.40;;;14.80;;
12171;SDS011;6149;52.418;13.668;2023-05-15T05:26:17;16.27;;;14.63;;
12171;SDS011;6149;52.418;13.668;2023-05-15T05:28:47;15.97;;;14.57;;
12171;SDS011;6149;52.418;13.668;2023-05-15T05:31:15;17.63;;;15.80;;
12171;SDS011;6149;52.418;13.668;2023-05-15T05:33:42;15.43;;;14.03;;
12171;SDS011;6149;52.418;13.668;2023-05-15T05:36:10;17.80;;;16.20;;
12171;SDS011;6149;52.418;13.668;2023-05-15T05:38:38;17.43;;;15.63;;
12171;SDS011;6149;52.418;13.668;2023-05-15T05:41:04;15.73;;;14.33;;
12171;SDS011;6149;52.418;13.668;2023-05-15T05:43:31;15.03;;;13.63;;
12171;SDS011;6149;52.418;13.668;2023-05-15T05:45:58;16.73;;;14.97;;
12171;SDS011;6149;52.418;13.668;2023-05-15T05:48:27;15.10;;;13.70;;
12171;SDS011;6149;52.418;13.668;2023-05-15T05:50:56;14.27;;;13.00;;
12171;SDS011;6149;52.418;13.668;2023-05-15T05:53:24;14.90;;;13.60;;
12171;SDS011;6149;52.418;13.668;2023-05-15T05:55:58;15.90;;;14.60;;
12171;SDS011;6149;52.418;13.668;2023-05-15T05:58:26;15.17;;;13.77;;
12171;SDS011;6149;52.418;13.668;2023-05-15T06:00:53;13.63;;;12.43;;
12171;SDS011;6149;52.418;13.668;2023-05-15T06:03:22;14.47;;;13.10;;
12171;SDS011;6149;52.418;13.668;2023-05-15T06:05:51;13.40;;;12.20;;
12171;SDS011;6149;52.418;13.668;2023-05-15T06:08:18;14.30;;;12.63;;
12171;SDS011;6149;52.418;13.668;2023-05-15T06:10:48;13.80;;;12.40;;
12171;SDS011;6149;52.418;13.668;2023-05-15T06:13:20;14.03;;;12.67;;
12171;SDS011;6149;52.418;13.668;2023-05-15T06:15:47;13.13;;;11.93;;
12171;SDS011;6149;52.418;13.668;2023-05-15T06:18:16;13.73;;;12.43;;
12171;SDS011;6149;52.418;13.668;2023-05-15T06:20:43;12.93;;;11.63;;
12171;SDS011;6149;52.418;13.668;2023-05-15T06:23:12;12.73;;;11.37;;
12171;SDS011;6149;52.418;13.668;2023-05-15T06:25:38;11.80;;;10.43;;
12171;SDS011;6149;52.418;13.668;2023-05-15T06:28:05;12.20;;;11.07;;
12171;SDS011;6149;52.418;13.668;2023-05-15T06:30:33;10.67;;;9.77;;
12171;SDS011;6149;52.418;13.668;2023-05-15T06:33:02;12.43;;;11.13;;
12171;SDS011;6149;52.418;13.668;2023-05-15T06:35:28;13.07;;;10.47;;
12171;SDS011;6149;52.418;13.668;2023-05-15T06:37:55;12.57;;;10.40;;
12171;SDS011;6149;52.418;13.668;2023-05-15T06:40:23;10.37;;;9.37;;
12171;SDS011;6149;52.418;13.668;2023-05-15T06:42:50;10.50;;;9.50;;
12171;SDS011;6149;52.418;13.668;2023-05-15T06:45:17;10.50;;;9.17;;
12171;SDS011;6149;52.418;13.668;2023-05-15T06:47:45;9.47;;;8.50;;
12171;SDS011;6149;52.418;13.668;2023-05-15T06:50:11;11.87;;;9.10;;
12171;SDS011;6149;52.418;13.668;2023-05-15T06:52:38;11.13;;;8.97;;
12171;SDS011;6149;52.418;13.668;2023-05-15T06:55:06;10.93;;;9.00;;
12171;SDS011;6149;52.418;13.668;2023-05-15T06:57:33;10.27;;;8.70;;
12171;SDS011;6149;52.418;13.668;2023-05-15T06:59:59;10.57;;;8.10;;
12171;SDS011;6149;52.418;13.668;2023-05-15T07:02:26;9.70;;;8.80;;
12171;SDS011;6149;52.418;13.668;2023-05-15T07:04:55;8.40;;;7.60;;
12171;SDS011;6149;52.418;13.668;2023-05-15T07:07:23;11.40;;;7.77;;
12171;SDS011;6149;52.418;13.668;2023-05-15T07:09:53;12.50;;;7.63;;
12171;SDS011;6149;52.418;13.668;2023-05-15T07:12:20;7.57;;;6.87;;
12171;SDS011;6149;52.418;13.668;2023-05-15T07:14:48;9.90;;;8.80;;
12171;SDS011;6149;52.418;13.668;2023-05-15T07:17:15;10.00;;;7.33;;
12171;SDS011;6149;52.418;13.668;2023-05-15T07:19:43;12.90;;;8.50;;
12171;SDS011;6149;52.418;13.668;2023-05-15T07:22:11;8.90;;;8.00;;
12171;SDS011;6149;52.418;13.668;2023-05-15T07:25:02;8.17;;;7.37;;
12171;SDS011;6149;52.418;13.668;2023-05-15T07:27:30;9.30;;;7.50;;
12171;SDS011;6149;52.418;13.668;2023-05-15T07:29:57;11.03;;;7.37;;
12171;SDS011;6149;52.418;13.668;2023-05-15T07:32:23;10.90;;;8.27;;
12171;SDS011;6149;52.418;13.668;2023-05-15T07:34:51;11.40;;;8.13;;
12171;SDS011;6149;52.418;13.668;2023-05-15T07:37:32;10.07;;;7.97;;
12171;SDS011;6149;52.418;13.668;2023-05-15T07:39:59;9.60;;;7.50;;
12171;SDS011;6149;52.418;13.668;2023-05-15T07:42:27;8.63;;;7.77;;
12171;SDS011;6149;52.418;13.668;2023-05-15T07:44:55;8.80;;;7.87;;
12171;SDS011;6149;52.418;13.668;2023-05-15T07:47:23;9.00;;;7.60;;
12171;SDS011;6149;52.418;13.668;2023-05-15T07:49:53;10.53;;;8.50;;
12171;SDS011;6149;52.418;13.668;2023-05-15T07:52:22;9.93;;;7.70;;
12171;SDS011;6149;52.418;13.668;2023-05-15T07:54:50;8.53;;;6.60;;
12171;SDS011;6149;52.418;13.668;2023-05-15T07:57:19;11.93;;;7.40;;
12171;SDS011;6149;52.418;13.668;2023-05-15T07:59:51;9.23;;;7.50;;
12171;SDS011;6149;52.418;13.668;2023-05-15T08:02:18;9.10;;;6.70;;
12171;SDS011;6149;52.418;13.668;2023-05-15T08:04:45;9.30;;;7.10;;
12171;SDS011;6149;52.418;13.668;2023-05-15T08:07:13;7.97;;;6.60;;
12171;SDS011;6149;52.418;13.668;2023-05-15T08:09:44;9.80;;;7.47;;
12171;SDS011;6149;52.418;13.668;2023-05-15T08:12:15;8.83;;;7.00;;
12171;SDS011;6149;52.418;13.668;2023-05-15T08:14:46;8.67;;;7.10;;
12171;SDS011;6149;52.418;13.668;2023-05-15T08:17:16;8.30;;;7.50;;
12171;SDS011;6149;52.418;13.668;2023-05-15T08:19:52;7.87;;;6.67;;
12171;SDS011;6149;52.418;13.668;2023-05-15T08:22:18;8.10;;;6.70;;
12171;SDS011;6149;52.418;13.668;2023-05-15T08:24:47;8.30;;;7.50;;
12171;SDS011;6149;52.418;13.668;2023-05-15T08:27:13;8.20;;;7.23;;
12171;SDS011;6149;52.418;13.668;2023-05-15T08:29:42;11.27;;;7.30;;
12171;SDS011;6149;52.418;13.668;2023-05-15T08:32:09;9.90;;;7.67;;
12171;SDS011;6149;52.418;13.668;2023-05-15T08:34:35;9.87;;;7.00;;
12171;SDS011;6149;52.418;13.668;2023-05-15T08:37:03;10.37;;;7.43;;
12171;SDS011;6149;52.418;13.668;2023-05-15T08:39:30;9.53;;;7.33;;
12171;SDS011;6149;52.418;13.668;2023-05-15T08:41:59;10.97;;;7.73;;
12171;SDS011;6149;52.418;13.668;2023-05-15T08:44:33;13.17;;;7.33;;
12171;SDS011;6149;52.418;13.668;2023-05-15T08:47:01;10.07;;;6.77;;
12171;SDS011;6149;52.418;13.668;2023-05-15T08:49:32;7.80;;;6.13;;
12171;SDS011;6149;52.418;13.668;2023-05-15T08:52:10;8.60;;;6.43;;
12171;SDS011;6149;52.418;13.668;2023-05-15T08:54:37;8.33;;;6.30;;
12171;SDS011;6149;52.418;13.668;2023-05-15T08:57:06;6.30;;;5.67;;
12171;SDS011;6149;52.418;13.668;2023-05-15T08:59:36;8.17;;;6.50;;
12171;SDS011;6149;52.418;13.668;2023-05-15T09:02:03;7.70;;;6.83;;
12171;SDS011;6149;52.418;13.668;2023-05-15T09:04:30;7.80;;;6.43;;
12171;SDS011;6149;52.418;13.668;2023-05-15T09:06:57;9.43;;;7.00;;
12171;SDS011;6149;52.418;13.668;2023-05-15T09:09:25;11.93;;;7.00;;
12171;SDS011;6149;52.418;13.668;2023-05-15T09:11:53;11.23;;;6.50;;
12171;SDS011;6149;52.418;13.668;2023-05-15T09:14:23;9.47;;;6.90;;
12171;SDS011;6149;52.418;13.668;2023-05-15T09:16:53;9.17;;;5.70;;
12171;SDS011;6149;52.418;13.668;2023-05-15T09:19:24;18.70;;;7.03;;
12171;SDS011;6149;52.418;13.668;2023-05-15T09:21:52;8.57;;;6.30;;
12171;SDS011;6149;52.418;13.668;2023-05-15T09:24:19;8.20;;;6.47;;
12171;SDS011;6149;52.418;13.668;2023-05-15T09:27:03;10.47;;;6.67;;
12171;SDS011;6149;52.418;13.668;2023-05-15T09:29:33;9.27;;;5.90;;
12171;SDS011;6149;52.418;13.668;2023-05-15T09:32:05;10.47;;;6.27;;
12171;SDS011;6149;52.418;13.668;2023-05-15T09:34:34;10.57;;;6.50;;
12171;SDS011;6149;52.418;13.668;2023-05-15T09:37:03;8.33;;;6.07;;
12171;SDS011;6149;52.418;13.668;2023-05-15T09:39:34;10.97;;;6.70;;
12171;SDS011;6149;52.418;13.668;2023-05-15T09:42:06;11.83;;;7.00;;
12171;SDS011;6149;52.418;13.668;2023-05-15T09:44:40;9.53;;;6.63;;
12171;SDS011;6149;52.418;13.668;2023-05-15T09:47:08;6.37;;;5.63;;
12171;SDS011;6149;52.418;13.668;2023-05-15T09:49:35;12.80;;;6.57;;
12171;SDS011;6149;52.418;13.668;2023-05-15T09:52:02;8.60;;;6.37;;
12171;SDS011;6149;52.418;13.668;2023-05-15T09:54:34;15.13;;;7.20;;
12171;SDS011;6149;52.418;13.668;2023-05-15T09:57:07;9.43;;;6.77;;
12171;SDS011;6149;52.418;13.668;2023-05-15T09:59:37;12.63;;;7.60;;
12171;SDS011;6149;52.418;13.668;2023-05-15T10:02:12;12.30;;;7.53;;
12171;SDS011;6149;52.418;13.668;2023-05-15T10:04:54;9.93;;;6.73;;
12171;SDS011;6149;52.418;13.668;2023-05-15T10:07:28;11.03;;;6.70;;
12171;SDS011;6149;52.418;13.668;2023-05-15T10:09:55;10.53;;;6.90;;
12171;SDS011;6149;52.418;13.668;2023-05-15T10:12:23;8.40;;;6.43;;
12171;SDS011;6149;52.418;13.668;2023-05-15T10:14:55;10.10;;;6.57;;
12171;SDS011;6149;52.418;13.668;2023-05-15T10:17:24;14.40;;;7.40;;
12171;SDS011;6149;52.418;13.668;2023-05-15T10:19:54;12.93;;;6.77;;
12171;SDS011;6149;52.418;13.668;2023-05-15T10:22:27;13.20;;;6.77;;
12171;SDS011;6149;52.418;13.668;2023-05-15T10:24:58;8.53;;;6.60;;
12171;SDS011;6149;52.418;13.668;2023-05-15T10:27:29;8.50;;;6.67;;
12171;SDS011;6149;52.418;13.668;2023-05-15T10:29:58;8.63;;;6.03;;
12171;SDS011;6149;52.418;13.668;2023-05-15T10:32:27;10.27;;;7.47;;
12171;SDS011;6149;52.418;13.668;2023-05-15T10:34:56;11.73;;;6.93;;
12171;SDS011;6149;52.418;13.668;2023-05-15T10:37:24;15.03;;;7.07;;
12171;SDS011;6149;52.418;13.668;2023-05-15T10:39:55;13.93;;;6.40;;
12171;SDS011;6149;52.418;13.668;2023-05-15T10:42:25;13.50;;;7.47;;
12171;SDS011;6149;52.418;13.668;2023-05-15T10:44:53;9.73;;;7.20;;
12171;SDS011;6149;52.418;13.668;2023-05-15T10:47:25;10.80;;;7.10;;
12171;SDS011;6149;52.418;13.668;2023-05-15T10:49:53;7.77;;;5.83;;
12171;SDS011;6149;52.418;13.668;2023-05-15T10:52:21;9.80;;;6.80;;
12171;SDS011;6149;52.418;13.668;2023-05-15T10:54:53;10.07;;;7.00;;
12171;SDS011;6149;52.418;13.668;2023-05-15T10:57:22;8.13;;;6.90;;
12171;SDS011;6149;52.418;13.668;2023-05-15T10:59:51;8.37;;;7.07;;
12171;SDS011;6149;52.418;13.668;2023-05-15T11:02:19;13.87;;;7.57;;
12171;SDS011;6149;52.418;13.668;2023-05-15T11:05:04;10.97;;;7.80;;
12171;SDS011;6149;52.418;13.668;2023-05-15T11:10:53;11.37;;;7.90;;
12171;SDS011;6149;52.418;13.668;2023-05-15T11:13:21;10.87;;;7.70;;
12171;SDS011;6149;52.418;13.668;2023-05-15T11:15:48;11.40;;;7.80;;
12171;SDS011;6149;52.418;13.668;2023-05-15T11:18:17;8.03;;;7.23;;
12171;SDS011;6149;52.418;13.668;2023-05-15T11:21:06;12.73;;;7.13;;
12171;SDS011;6149;52.418;13.668;2023-05-15T11:23:36;13.33;;;6.90;;
12171;SDS011;6149;52.418;13.668;2023-05-15T11:26:05;12.60;;;7.57;;
12171;SDS011;6149;52.418;13.668;2023-05-15T11:28:40;8.77;;;6.40;;
12171;SDS011;6149;52.418;13.668;2023-05-15T11:31:11;9.40;;;7.27;;
12171;SDS011;6149;52.418;13.668;2023-05-15T11:33:38;7.50;;;5.90;;
12171;SDS011;6149;52.418;13.668;2023-05-15T11:36:06;6.73;;;6.07;;
12171;SDS011;6149;52.418;13.668;2023-05-15T11:38:37;6.80;;;4.77;;
12171;SDS011;6149;52.418;13.668;2023-05-15T11:41:15;5.87;;;5.27;;
12171;SDS011;6149;52.418;13.668;2023-05-15T11:43:46;6.47;;;4.67;;
12171;SDS011;6149;52.418;13.668;2023-05-15T11:46:13;5.63;;;5.13;;
12171;SDS011;6149;52.418;13.668;2023-05-15T11:48:40;5.77;;;5.17;;
12171;SDS011;6149;52.418;13.668;2023-05-15T11:51:15;6.67;;;5.17;;
12171;SDS011;6149;52.418;13.668;2023-05-15T11:53:47;7.40;;;4.70;;
12171;SDS011;6149;52.418;13.668;2023-05-15T11:56:17;5.77;;;4.63;;
12171;SDS011;6149;52.418;13.668;2023-05-15T11:58:46;6.23;;;4.57;;
12171;SDS011;6149;52.418;13.668;2023-05-15T12:01:16;5.27;;;4.20;;
12171;SDS011;6149;52.418;13.668;2023-05-15T12:03:43;6.33;;;4.70;;
12171;SDS011;6149;52.418;13.668;2023-05-15T12:06:17;6.73;;;4.93;;
12171;SDS011;6149;52.418;13.668;2023-05-15T12:08:44;6.00;;;4.27;;
12171;SDS011;6149;52.418;13.668;2023-05-15T12:11:20;6.33;;;4.03;;
12171;SDS011;6149;52.418;13.668;2023-05-15T12:13:50;4.43;;;3.83;;
12171;SDS011;6149;52.418;13.668;2023-05-15T12:16:22;5.73;;;4.20;;
12171;SDS011;6149;52.418;13.668;2023-05-15T12:18:55;5.30;;;4.13;;
12171;SDS011;6149;52.418;13.668;2023-05-15T12:21:30;4.30;;;3.80;;
12171;SDS011;6149;52.418;13.668;2023-05-15T12:23:57;3.97;;;3.20;;
12171;SDS011;6149;52.418;13.668;2023-05-15T12:26:23;3.37;;;3.17;;
12171;SDS011;6149;52.418;13.668;2023-05-15T12:28:54;3.50;;;3.20;;
12171;SDS011;6149;52.418;13.668;2023-05-15T12:31:24;3.23;;;2.97;;
12171;SDS011;6149;52.418;13.668;2023-05-15T12:33:54;5.27;;;3.13;;
12171;SDS011;6149;52.418;13.668;2023-05-15T12:36:22;3.30;;;3.00;;
12171;SDS011;6149;52.418;13.668;2023-05-15T12:38:54;2.90;;;2.70;;
12171;SDS011;6149;52.418;13.668;2023-05-15T12:41:24;3.47;;;2.90;;
12171;SDS011;6149;52.418;13.668;2023-05-15T12:43:54;3.73;;;2.90;;
12171;SDS011;6149;52.418;13.668;2023-05-15T12:46:22;2.93;;;2.73;;
12171;SDS011;6149;52.418;13.668;2023-05-15T12:48:50;2.40;;;2.30;;
12171;SDS011;6149;52.418;13.668;2023-05-15T12:51:21;3.67;;;2.83;;
12171;SDS011;6149;52.418;13.668;2023-05-15T12:53:52;3.03;;;2.83;;
12171;SDS011;6149;52.418;13.668;2023-05-15T12:56:22;4.93;;;3.37;;
12171;SDS011;6149;52.418;13.668;2023-05-15T12:58:51;3.20;;;2.90;;
12171;SDS011;6149;52.418;13.668;2023-05-15T13:01:19;3.03;;;2.73;;
12171;SDS011;6149;52.418;13.668;2023-05-15T13:03:51;2.93;;;2.70;;
12171;SDS011;6149;52.418;13.668;2023-05-15T13:06:21;7.87;;;2.73;;
12171;SDS011;6149;52.418;13.668;2023-05-15T13:08:52;2.87;;;2.50;;
12171;SDS011;6149;52.418;13.668;2023-05-15T13:11:21;2.87;;;2.63;;
12171;SDS011;6149;52.418;13.668;2023-05-15T13:13:51;2.40;;;2.20;;
12171;SDS011;6149;52.418;13.668;2023-05-15T13:16:23;3.67;;;2.70;;
12171;SDS011;6149;52.418;13.668;2023-05-15T13:18:51;2.90;;;2.40;;
12171;SDS011;6149;52.418;13.668;2023-05-15T13:21:21;3.20;;;2.90;;
12171;SDS011;6149;52.418;13.668;2023-05-15T13:23:54;2.90;;;2.70;;
12171;SDS011;6149;52.418;13.668;2023-05-15T13:26:22;2.83;;;2.63;;
12171;SDS011;6149;52.418;13.668;2023-05-15T13:28:50;3.23;;;2.93;;
12171;SDS011;6149;52.418;13.668;2023-05-15T13:31:21;3.57;;;2.67;;
12171;SDS011;6149;52.418;13.668;2023-05-15T13:33:50;4.53;;;2.70;;
12171;SDS011;6149;52.418;13.668;2023-05-15T13:36:21;3.93;;;2.73;;
12171;SDS011;6149;52.418;13.668;2023-05-15T13:38:54;4.30;;;2.40;;
12171;SDS011;6149;52.418;13.668;2023-05-15T13:41:24;3.33;;;2.60;;
12171;SDS011;6149;52.418;13.668;2023-05-15T13:43:52;4.23;;;3.30;;
12171;SDS011;6149;52.418;13.668;2023-05-15T13:46:19;6.20;;;3.50;;
12171;SDS011;6149;52.418;13.668;2023-05-15T13:48:48;7.13;;;3.33;;
12171;SDS011;6149;52.418;13.668;2023-05-15T13:51:14;4.30;;;2.47;;
12171;SDS011;6149;52.418;13.668;2023-05-15T13:53:42;4.03;;;2.20;;
12171;SDS011;6149;52.418;13.668;2023-05-15T13:56:12;4.30;;;2.00;;
12171;SDS011;6149;52.418;13.668;2023-05-15T13:58:39;2.90;;;1.63;;
12171;SDS011;6149;52.418;13.668;2023-05-15T14:01:06;6.20;;;1.67;;
12171;SDS011;6149;52.418;13.668;2023-05-15T14:03:33;2.27;;;1.70;;
12171;SDS011;6149;52.418;13.668;2023-05-15T14:05:59;2.30;;;1.87;;
12171;SDS011;6149;52.418;13.668;2023-05-15T14:08:27;2.90;;;1.43;;
12171;SDS011;6149;52.418;13.668;2023-05-15T14:10:55;2.57;;;2.30;;
12171;SDS011;6149;52.418;13.668;2023-05-15T14:13:25;4.13;;;2.30;;
12171;SDS011;6149;52.418;13.668;2023-05-15T14:15:55;2.57;;;2.27;;
12171;SDS011;6149;52.418;13.668;2023-05-15T14:18:22;3.50;;;2.50;;
12171;SDS011;6149;52.418;13.668;2023-05-15T14:20:51;2.90;;;2.63;;
12171;SDS011;6149;52.418;13.668;2023-05-15T14:23:21;3.90;;;2.53;;
12171;SDS011;6149;52.418;13.668;2023-05-15T14:25:53;3.37;;;2.67;;
12171;SDS011;6149;52.418;13.668;2023-05-15T14:28:22;2.63;;;2.43;;
12171;SDS011;6149;52.418;13.668;2023-05-15T14:30:54;3.03;;;2.73;;
12171;SDS011;6149;52.418;13.668;2023-05-15T14:33:24;3.00;;;2.80;;
12171;SDS011;6149;52.418;13.668;2023-05-15T14:35:54;3.03;;;2.83;;
12171;SDS011;6149;52.418;13.668;2023-05-15T14:38:20;3.47;;;3.07;;
12171;SDS011;6149;52.418;13.668;2023-05-15T14:40:48;3.93;;;3.20;;
12171;SDS011;6149;52.418;13.668;2023-05-15T14:43:16;5.67;;;3.37;;
12171;SDS011;6149;52.418;13.668;2023-05-15T14:45:45;4.03;;;3.67;;
12171;SDS011;6149;52.418;13.668;2023-05-15T14:48:14;4.70;;;4.20;;
12171;SDS011;6149;52.418;13.668;2023-05-15T14:50:40;5.70;;;3.80;;